Погода Сосенкина неделю

Ростовская область, Россия

21 - 27 мая
  • 21мая
    Сегодня
    +15°
    +25°
    Ясно и безоблачно
    ВремяПогодаТемператураВлажностьДавлениеВетер, м/сВероятность осадков
    00:00Ясно и безоблачно+16°C68 %761 мм1.3 м/с2 %
    03:00Ясно и безоблачно+16°C84 %761 мм1.6 м/с2 %
    06:00Ясно и безоблачно+16°C75 %762 мм1.7 м/с2 %
    09:00Ясно и безоблачно+20°C45 %762 мм2.0 м/с2 %
    12:00Ясно и безоблачно+23°C32 %762 мм2.3 м/с2 %
    15:00Ясно и безоблачно+25°C27 %761 мм2.3 м/с2 %
    18:00Ясно и безоблачно+24°C35 %761 мм1.3 м/с2 %
    21:00Ясно и безоблачно+20°C64 %761 мм1.3 м/с2 %
  • 22мая
    Среда
    +15°
    +25°
    Ясно и безоблачно
    ВремяПогодаТемператураВлажностьДавлениеВетер, м/сВероятность осадков
    00:00Ясно и безоблачно+17°C53 %761 мм1.6 м/с2 %
    03:00Ясно и безоблачно+16°C61 %761 мм1.2 м/с2 %
    06:00Ясно и безоблачно+16°C70 %761 мм1.5 м/с2 %
    09:00Практически безоблачно+21°C40 %761 мм1.8 м/с2 %
    12:00Ясно и безоблачно+25°C27 %761 мм2.6 м/с2 %
    15:00Ясно и безоблачно+25°C30 %760 мм2.9 м/с2 %
    18:00Ясно и безоблачно+25°C35 %759 мм2.0 м/с2 %
    21:00Ясно и безоблачно+21°C61 %759 мм1.7 м/с2 %
  • 23мая
    Четверг
    +15°
    +26°
    Ясно и безоблачно
    ВремяПогодаТемператураВлажностьДавлениеВетер, м/сВероятность осадков
    00:00Ясно и безоблачно+18°C64 %759 мм1.9 м/с2 %
    03:00Ясно и безоблачно+16°C59 %759 мм1.9 м/с2 %
    06:00Ясно и безоблачно+17°C63 %760 мм1.6 м/с2 %
    09:00Ясно и безоблачно+21°C42 %760 мм2.2 м/с2 %
    12:00Ясно и безоблачно+25°C33 %759 мм2.9 м/с2 %
    15:00Ясно и безоблачно+26°C31 %759 мм3.6 м/с3 %
    18:00Облачно с прояснениями+23°C52 %759 мм3.7 м/с4 %
    21:00Практически безоблачно+20°C65 %760 мм4.2 м/с2 %
  • 24мая
    Пятница
    +13°
    +22°
    Ясно и безоблачно
    ВремяПогодаТемператураВлажностьДавлениеВетер, м/сВероятность осадков
    00:00Ясно и безоблачно+17°C72 %761 мм4.0 м/с2 %
    03:00Ясно и безоблачно+16°C62 %762 мм4.9 м/с2 %
    06:00Ясно и безоблачно+15°C53 %763 мм5.0 м/с2 %
    09:00Ясно и безоблачно+18°C47 %765 мм5.5 м/с2 %
    12:00Ясно и безоблачно+22°C39 %765 мм6.0 м/с2 %
    15:00Ясно и безоблачно+22°C30 %765 мм5.9 м/с2 %
    18:00Ясно и безоблачно+21°C32 %765 мм4.7 м/с2 %
    21:00Ясно и безоблачно+18°C40 %766 мм5.1 м/с2 %
Мы используем cookies
Соглашаюсь